createdAt,value
2023-05-25T00:00:31.312Z,10.10
2023-05-25T00:02:59.703Z,10.10
2023-05-25T00:05:27.580Z,10.10
2023-05-25T00:07:55.649Z,10.10
2023-05-25T00:10:24.025Z,10.10
2023-05-25T00:12:52.427Z,10.10
2023-05-25T00:15:19.268Z,10.10
2023-05-25T00:17:49.165Z,10.10
2023-05-25T00:20:16.194Z,10.10
2023-05-25T00:22:45.229Z,10.00
2023-05-25T00:25:12.515Z,10.00
2023-05-25T00:27:39.808Z,9.90
2023-05-25T00:30:08.707Z,9.90
2023-05-25T00:32:36.779Z,9.90
2023-05-25T00:35:03.817Z,9.90
2023-05-25T00:37:31.135Z,9.90
2023-05-25T00:39:57.786Z,9.80
2023-05-25T00:42:25.198Z,9.70
2023-05-25T00:44:51.869Z,9.70
2023-05-25T00:47:19.332Z,9.60
2023-05-25T00:49:46.099Z,9.60
2023-05-25T00:52:13.956Z,9.70
2023-05-25T00:54:40.577Z,9.60
2023-05-25T00:57:08.753Z,9.60
2023-05-25T00:59:41.216Z,9.50
2023-05-25T01:02:11.832Z,9.40
2023-05-25T01:04:45.094Z,9.40
2023-05-25T01:07:18.072Z,9.30
2023-05-25T01:09:45.629Z,9.20
2023-05-25T01:12:16.108Z,9.10
2023-05-25T01:14:43.738Z,9.10
2023-05-25T01:17:11.196Z,9.10
2023-05-25T01:19:41.005Z,9.10
2023-05-25T01:22:12.753Z,9.10
2023-05-25T01:24:53.844Z,9.10
2023-05-25T01:27:43.809Z,9.10
2023-05-25T01:30:13.930Z,9.10
2023-05-25T01:32:45.334Z,9.10
2023-05-25T01:35:13.201Z,9.00
2023-05-25T01:37:46.454Z,9.00
2023-05-25T01:40:13.685Z,9.00
2023-05-25T01:42:41.217Z,9.00
2023-05-25T01:45:09.959Z,9.00
2023-05-25T01:48:14.813Z,8.90
2023-05-25T01:50:53.437Z,8.90
2023-05-25T01:53:31.617Z,8.80
2023-05-25T01:56:11.400Z,8.80
2023-05-25T01:58:45.352Z,8.80
2023-05-25T02:01:14.896Z,8.80
2023-05-25T02:03:42.824Z,8.80
2023-05-25T02:06:09.822Z,8.70
2023-05-25T02:08:37.321Z,8.70
2023-05-25T02:11:04.080Z,8.70
2023-05-25T02:13:31.426Z,8.70
2023-05-25T02:15:58.145Z,8.70
2023-05-25T02:18:25.493Z,8.70
2023-05-25T02:20:54.460Z,8.60
2023-05-25T02:23:21.970Z,8.70
2023-05-25T02:25:48.870Z,8.70
2023-05-25T02:28:16.651Z,8.70
2023-05-25T02:30:43.565Z,8.70
2023-05-25T02:33:10.820Z,8.70
2023-05-25T02:35:38.240Z,8.70
2023-05-25T02:38:05.850Z,8.60
2023-05-25T02:40:32.491Z,8.60
2023-05-25T02:42:59.816Z,8.70
2023-05-25T02:45:26.544Z,8.60
2023-05-25T02:47:53.867Z,8.60
2023-05-25T02:50:22.573Z,8.60
2023-05-25T02:52:52.505Z,8.60
2023-05-25T02:55:19.333Z,8.60
2023-05-25T02:57:46.982Z,8.50
2023-05-25T03:00:26.969Z,8.50
2023-05-25T03:02:54.476Z,8.50
2023-05-25T03:05:21.824Z,8.40
2023-05-25T03:07:49.404Z,8.40
2023-05-25T03:10:16.030Z,8.40
2023-05-25T03:12:43.904Z,8.30
2023-05-25T03:15:13.105Z,8.30
2023-05-25T03:17:40.744Z,8.30
2023-05-25T03:20:10.339Z,8.20
2023-05-25T03:22:42.113Z,8.20
2023-05-25T03:25:12.357Z,8.10
2023-05-25T03:27:40.772Z,8.00
2023-05-25T03:30:09.135Z,8.00
2023-05-25T03:32:36.673Z,8.00
2023-05-25T03:35:05.702Z,8.00
2023-05-25T03:37:33.542Z,8.00
2023-05-25T03:40:00.359Z,8.00
2023-05-25T03:42:28.235Z,8.00
2023-05-25T03:44:54.950Z,8.00
2023-05-25T03:47:22.355Z,8.00
2023-05-25T03:49:49.141Z,8.00
2023-05-25T03:52:16.519Z,8.10
2023-05-25T03:54:43.191Z,8.10
2023-05-25T03:57:10.713Z,8.10
2023-05-25T03:59:37.375Z,8.20
2023-05-25T04:02:04.852Z,8.20
2023-05-25T04:04:31.606Z,8.30
2023-05-25T04:06:58.962Z,8.40
2023-05-25T04:09:25.761Z,8.40
2023-05-25T04:11:53.040Z,8.50
2023-05-25T04:14:21.544Z,8.60
2023-05-25T04:16:49.699Z,8.60
2023-05-25T04:19:16.722Z,8.70
2023-05-25T04:21:43.989Z,8.70
2023-05-25T04:24:11.855Z,8.80
2023-05-25T04:26:40.515Z,8.80
2023-05-25T04:29:09.732Z,8.90
2023-05-25T04:32:09.840Z,9.00
2023-05-25T04:34:48.351Z,9.00
2023-05-25T04:37:21.764Z,9.10
2023-05-25T04:39:49.215Z,9.10
2023-05-25T04:42:17.294Z,9.20
2023-05-25T04:44:44.028Z,9.20
2023-05-25T04:47:12.379Z,9.30
2023-05-25T04:49:39.075Z,9.40
2023-05-25T04:52:08.574Z,9.50
2023-05-25T04:54:35.933Z,9.60
2023-05-25T04:57:03.756Z,9.60
2023-05-25T04:59:31.610Z,9.70
2023-05-25T05:01:59.406Z,9.80
2023-05-25T05:04:26.567Z,10.00
2023-05-25T05:06:57.370Z,11.50
2023-05-25T05:09:25.881Z,13.00
2023-05-25T05:11:56.211Z,14.40
2023-05-25T05:14:23.025Z,15.30
2023-05-25T05:16:50.430Z,16.30
2023-05-25T05:19:17.221Z,16.90
2023-05-25T05:21:44.763Z,17.10
2023-05-25T05:24:12.045Z,17.70
2023-05-25T05:26:56.208Z,18.00
2023-05-25T05:29:29.515Z,18.70
2023-05-25T05:31:57.694Z,19.00
2023-05-25T05:34:26.179Z,19.60
2023-05-25T05:36:57.977Z,19.60
2023-05-25T05:39:25.404Z,19.70
2023-05-25T05:41:52.761Z,20.00
2023-05-25T05:44:26.815Z,20.40
2023-05-25T05:47:02.464Z,20.80
2023-05-25T05:49:31.203Z,21.40
2023-05-25T05:52:00.168Z,21.70
2023-05-25T05:54:30.761Z,21.60
2023-05-25T05:57:01.689Z,21.70
2023-05-25T05:59:29.031Z,22.10
2023-05-25T06:01:56.157Z,22.60
2023-05-25T06:04:26.143Z,22.70
2023-05-25T06:06:52.787Z,23.50
2023-05-25T06:09:20.273Z,24.00
2023-05-25T06:11:47.534Z,23.70
2023-05-25T06:14:14.309Z,24.00
2023-05-25T06:16:44.013Z,24.40
2023-05-25T06:19:11.017Z,25.20
2023-05-25T06:21:38.289Z,25.90
2023-05-25T06:24:05.396Z,25.70
2023-05-25T06:26:32.693Z,25.80
2023-05-25T06:28:59.427Z,26.30
2023-05-25T06:31:26.939Z,26.50
2023-05-25T06:33:54.384Z,26.50
2023-05-25T06:36:22.125Z,26.60
2023-05-25T06:38:49.327Z,26.50
2023-05-25T06:41:16.904Z,26.50
2023-05-25T06:43:43.622Z,26.50
2023-05-25T06:46:18.497Z,27.10
2023-05-25T06:48:46.017Z,26.80
2023-05-25T06:51:13.611Z,26.80
2023-05-25T06:53:40.552Z,26.50
2023-05-25T06:56:07.944Z,26.60
2023-05-25T06:58:34.642Z,26.10
2023-05-25T07:01:02.246Z,26.00
2023-05-25T07:03:28.916Z,26.50
2023-05-25T07:05:56.313Z,27.00
2023-05-25T07:08:22.973Z,26.20
2023-05-25T07:10:50.569Z,26.60
2023-05-25T07:13:17.444Z,26.80
2023-05-25T07:15:44.937Z,26.20
2023-05-25T07:18:12.477Z,26.50
2023-05-25T07:20:43.938Z,26.60
2023-05-25T07:23:13.729Z,26.70
2023-05-25T07:25:42.155Z,27.30
2023-05-25T07:28:08.945Z,27.10
2023-05-25T07:30:35.997Z,27.10
2023-05-25T07:33:02.727Z,27.10
2023-05-25T07:35:31.941Z,26.40
2023-05-25T07:38:04.406Z,26.40
2023-05-25T07:40:32.009Z,26.00
2023-05-25T07:42:58.669Z,24.70
2023-05-25T07:45:26.232Z,25.10
2023-05-25T07:47:52.943Z,25.40
2023-05-25T07:50:20.384Z,26.20
2023-05-25T07:52:47.389Z,26.00
2023-05-25T07:55:14.742Z,25.90
2023-05-25T07:57:41.515Z,25.60
2023-05-25T08:00:09.908Z,25.50
2023-05-25T08:02:43.355Z,25.10
2023-05-25T08:05:10.883Z,24.70
2023-05-25T08:07:38.291Z,24.50
2023-05-25T08:10:07.441Z,24.30
2023-05-25T08:12:46.830Z,23.10
2023-05-25T08:15:15.679Z,21.80
2023-05-25T08:17:42.553Z,21.70
2023-05-25T08:20:10.684Z,20.00
2023-05-25T08:22:37.438Z,19.70
2023-05-25T08:25:05.615Z,20.20
2023-05-25T08:27:35.198Z,20.30
2023-05-25T08:30:06.080Z,20.10
2023-05-25T08:32:33.054Z,19.70
2023-05-25T08:35:02.015Z,19.00
2023-05-25T08:37:29.295Z,19.40
2023-05-25T08:39:56.465Z,19.40
2023-05-25T08:42:23.776Z,18.80
2023-05-25T08:44:51.238Z,18.40
2023-05-25T08:47:22.604Z,18.50
2023-05-25T08:49:51.604Z,18.70
2023-05-25T08:52:24.195Z,18.80
2023-05-25T08:54:55.682Z,18.90
2023-05-25T08:57:46.124Z,19.00
2023-05-25T09:00:16.163Z,18.40
2023-05-25T09:03:29.032Z,18.00
2023-05-25T09:05:57.616Z,17.90
2023-05-25T09:08:25.057Z,17.90
2023-05-25T09:10:53.576Z,17.80
2023-05-25T09:13:22.914Z,17.40
2023-05-25T09:15:50.793Z,17.50
2023-05-25T09:18:17.569Z,17.40
2023-05-25T09:20:47.061Z,17.60
2023-05-25T09:23:15.695Z,17.90
2023-05-25T09:25:44.043Z,18.30
2023-05-25T09:28:25.378Z,18.50
2023-05-25T09:30:54.231Z,18.40
2023-05-25T09:33:21.326Z,18.80
2023-05-25T09:35:49.022Z,19.10
2023-05-25T09:38:19.545Z,19.10
2023-05-25T09:40:47.349Z,18.80
2023-05-25T09:43:28.510Z,19.00
2023-05-25T09:46:04.445Z,18.80
2023-05-25T09:48:31.577Z,18.30
2023-05-25T09:50:59.090Z,18.90
2023-05-25T09:53:27.010Z,18.80
2023-05-25T09:55:54.608Z,18.60
2023-05-25T09:58:25.651Z,18.10
2023-05-25T10:00:56.186Z,18.10
2023-05-25T10:03:23.509Z,18.80
2023-05-25T10:05:53.581Z,18.90
2023-05-25T10:08:27.182Z,18.60
2023-05-25T10:10:55.987Z,18.50
2023-05-25T10:13:23.359Z,18.30
2023-05-25T10:15:54.193Z,18.30
2023-05-25T10:18:26.151Z,18.30
2023-05-25T10:21:03.552Z,17.90
2023-05-25T10:23:41.602Z,17.80
2023-05-25T10:26:10.122Z,17.60
2023-05-25T10:28:39.249Z,17.50
2023-05-25T10:31:09.114Z,17.40
2023-05-25T10:33:37.121Z,17.40
2023-05-25T10:38:35.135Z,17.10
2023-05-25T10:41:06.031Z,17.20
2023-05-25T10:43:33.439Z,17.20
2023-05-25T10:46:01.732Z,17.20
2023-05-25T10:48:38.718Z,17.10
2023-05-25T10:51:12.281Z,16.90
2023-05-25T10:53:39.251Z,16.80
2023-05-25T10:56:10.235Z,16.80
2023-05-25T10:58:42.702Z,16.90
2023-05-25T11:01:12.583Z,16.90
2023-05-25T11:03:48.441Z,17.10
2023-05-25T11:06:46.143Z,17.20
2023-05-25T11:09:27.738Z,17.10
2023-05-25T11:11:58.859Z,17.30
2023-05-25T11:14:30.670Z,17.30
2023-05-25T11:17:15.696Z,17.20
2023-05-25T11:19:50.732Z,17.40
2023-05-25T11:22:23.640Z,17.70
2023-05-25T11:24:54.069Z,17.50
2023-05-25T11:27:26.806Z,17.60
2023-05-25T11:29:57.849Z,18.00
2023-05-25T11:32:28.888Z,18.30
2023-05-25T11:34:58.811Z,18.50
2023-05-25T11:37:29.298Z,18.70
2023-05-25T11:39:56.811Z,19.20
2023-05-25T11:42:24.719Z,19.20
2023-05-25T11:44:52.317Z,19.30
2023-05-25T11:47:22.968Z,19.30
2023-05-25T11:49:50.474Z,19.30
2023-05-25T11:52:19.395Z,18.90
2023-05-25T11:54:46.600Z,18.60
2023-05-25T11:57:25.389Z,18.40
2023-05-25T11:59:53.171Z,18.10
2023-05-25T12:02:22.059Z,18.10
2023-05-25T12:05:01.594Z,18.10
2023-05-25T12:07:29.903Z,18.10
2023-05-25T12:10:08.462Z,18.20
2023-05-25T12:12:42.892Z,18.30
2023-05-25T12:15:12.332Z,18.30
2023-05-25T12:17:42.725Z,18.50
2023-05-25T12:20:15.654Z,18.50
2023-05-25T12:22:44.401Z,18.60
2023-05-25T12:25:13.156Z,18.70
2023-05-25T12:27:40.538Z,18.70
2023-05-25T12:30:10.239Z,18.70
2023-05-25T12:33:02.634Z,18.50
2023-05-25T12:35:44.253Z,18.30
2023-05-25T12:38:12.829Z,18.20
2023-05-25T12:40:41.693Z,18.00
2023-05-25T12:43:09.016Z,18.00
2023-05-25T12:45:40.721Z,18.20
2023-05-25T12:48:07.928Z,18.40
2023-05-25T12:50:37.183Z,18.50
2023-05-25T12:53:04.649Z,18.60
2023-05-25T12:55:33.692Z,18.60
2023-05-25T12:58:05.727Z,18.50
2023-05-25T13:00:35.653Z,18.40
2023-05-25T13:03:03.305Z,18.30
2023-05-25T13:05:37.142Z,18.20
2023-05-25T13:08:05.025Z,18.20
2023-05-25T13:10:33.394Z,18.40
2023-05-25T13:13:00.621Z,18.40
2023-05-25T13:15:28.535Z,18.40
2023-05-25T13:17:57.988Z,18.30
2023-05-25T13:20:27.186Z,18.50
2023-05-25T13:22:57.274Z,18.40
2023-05-25T13:25:27.774Z,18.50
2023-05-25T13:27:56.774Z,18.80
2023-05-25T13:30:24.166Z,18.90
2023-05-25T13:32:52.533Z,19.10
2023-05-25T13:35:34.388Z,19.10
2023-05-25T13:38:01.083Z,19.20
2023-05-25T13:40:28.711Z,19.20
2023-05-25T13:42:55.467Z,19.20
2023-05-25T13:45:22.576Z,19.40
2023-05-25T13:47:49.794Z,19.20
2023-05-25T13:50:17.344Z,19.30
2023-05-25T13:52:44.048Z,19.30
2023-05-25T13:55:11.534Z,19.30
2023-05-25T13:57:38.261Z,19.30
2023-05-25T14:00:07.895Z,19.30
2023-05-25T14:02:35.283Z,19.20
2023-05-25T14:05:02.510Z,19.20
2023-05-25T14:07:29.795Z,19.10
2023-05-25T14:09:58.200Z,18.90
2023-05-25T14:12:26.538Z,18.90
2023-05-25T14:14:53.443Z,19.00
2023-05-25T14:17:24.206Z,19.00
2023-05-25T14:19:51.290Z,19.10
2023-05-25T14:22:19.410Z,19.50
2023-05-25T14:24:46.075Z,19.80
2023-05-25T14:27:13.404Z,19.90
2023-05-25T14:29:40.103Z,20.00
2023-05-25T14:32:07.452Z,19.90
2023-05-25T14:34:34.090Z,19.60
2023-05-25T14:37:01.353Z,19.40
2023-05-25T14:39:28.352Z,19.40
2023-05-25T14:41:56.359Z,19.20
2023-05-25T14:44:23.084Z,19.30
2023-05-25T14:46:51.190Z,19.50
2023-05-25T14:49:17.958Z,19.50
2023-05-25T14:51:45.210Z,19.60
2023-05-25T14:54:13.414Z,19.40
2023-05-25T14:56:40.882Z,19.20
2023-05-25T14:59:07.644Z,18.90
2023-05-25T15:01:35.275Z,18.90
2023-05-25T15:04:02.139Z,19.10
2023-05-25T15:06:29.559Z,19.20
2023-05-25T15:08:56.251Z,19.10
2023-05-25T15:11:23.813Z,18.80
2023-05-25T15:13:50.689Z,18.90
2023-05-25T15:16:18.097Z,18.80
2023-05-25T15:18:45.306Z,18.90
2023-05-25T15:21:12.847Z,19.10
2023-05-25T15:23:39.481Z,19.00
2023-05-25T15:26:08.406Z,19.20
2023-05-25T15:28:35.140Z,19.30
2023-05-25T15:31:03.515Z,19.30
2023-05-25T15:33:48.618Z,19.20
2023-05-25T15:36:20.644Z,19.30
2023-05-25T15:38:49.050Z,19.50
2023-05-25T15:41:17.791Z,19.50
2023-05-25T15:43:54.293Z,19.60
2023-05-25T15:46:21.653Z,19.50
2023-05-25T15:48:48.399Z,19.20
2023-05-25T15:51:15.428Z,19.10
2023-05-25T15:53:42.046Z,18.90
2023-05-25T15:56:09.313Z,18.90
2023-05-25T15:58:35.975Z,18.90
2023-05-25T16:01:03.770Z,18.90
2023-05-25T16:03:30.550Z,18.90
2023-05-25T16:05:57.996Z,18.90
2023-05-25T16:08:24.703Z,19.00
2023-05-25T16:10:52.205Z,18.90
2023-05-25T16:13:18.881Z,18.80
2023-05-25T16:15:46.753Z,18.80
2023-05-25T16:18:13.585Z,18.70
2023-05-25T16:20:41.092Z,18.80
2023-05-25T16:23:07.921Z,18.70
2023-05-25T16:25:35.199Z,18.60
2023-05-25T16:28:01.860Z,18.60
2023-05-25T16:30:28.598Z,18.50
2023-05-25T16:32:55.298Z,18.50
2023-05-25T16:35:22.295Z,18.40
2023-05-25T16:37:48.921Z,18.40
2023-05-25T16:40:16.719Z,18.40
2023-05-25T16:42:43.388Z,18.40
2023-05-25T16:45:10.707Z,18.40
2023-05-25T16:47:37.479Z,18.40
2023-05-25T16:50:05.293Z,18.30
2023-05-25T16:52:31.992Z,18.30
2023-05-25T16:54:59.404Z,18.30
2023-05-25T16:57:26.112Z,18.30
2023-05-25T16:59:53.751Z,18.20
2023-05-25T17:02:20.700Z,18.10
2023-05-25T17:04:48.058Z,18.00
2023-05-25T17:07:14.857Z,17.90
2023-05-25T17:09:42.180Z,17.90
2023-05-25T17:12:09.042Z,17.90
2023-05-25T17:14:36.552Z,17.90
2023-05-25T17:17:03.894Z,17.90
2023-05-25T17:19:31.345Z,17.90
2023-05-25T17:21:58.108Z,17.90
2023-05-25T17:24:25.260Z,17.80
2023-05-25T17:26:51.980Z,17.70
2023-05-25T17:29:19.077Z,17.60
2023-05-25T17:31:48.330Z,17.50
2023-05-25T17:34:16.725Z,17.50
2023-05-25T17:36:43.461Z,17.50
2023-05-25T17:39:10.876Z,17.50
2023-05-25T17:41:37.598Z,17.50
2023-05-25T17:44:04.894Z,17.50
2023-05-25T17:46:31.791Z,17.40
2023-05-25T17:48:59.098Z,17.40
2023-05-25T17:51:25.849Z,17.40
2023-05-25T17:53:53.132Z,17.40
2023-05-25T17:56:19.890Z,17.30
2023-05-25T17:58:48.000Z,17.30
2023-05-25T18:01:15.848Z,17.30
2023-05-25T18:03:43.679Z,17.20
2023-05-25T18:06:10.448Z,17.10
2023-05-25T18:08:37.695Z,17.10
2023-05-25T18:11:05.196Z,17.10
2023-05-25T18:13:32.549Z,17.10
2023-05-25T18:15:59.552Z,17.10
2023-05-25T18:18:26.861Z,17.00
2023-05-25T18:20:53.577Z,17.00
2023-05-25T18:23:22.429Z,16.90
2023-05-25T18:25:49.174Z,16.90
2023-05-25T18:28:16.506Z,16.90
2023-05-25T18:30:43.348Z,16.90
2023-05-25T18:33:10.991Z,16.80
2023-05-25T18:35:38.050Z,16.80
2023-05-25T18:38:06.547Z,16.80
2023-05-25T18:40:33.267Z,16.80
2023-05-25T18:43:00.294Z,16.70
2023-05-25T18:45:26.958Z,16.70
2023-05-25T18:47:54.289Z,16.60
2023-05-25T18:50:21.272Z,16.60
2023-05-25T18:52:50.927Z,16.50
2023-05-25T18:55:19.012Z,16.40
2023-05-25T18:57:46.743Z,16.30
2023-05-25T19:00:14.046Z,16.30
2023-05-25T19:02:42.659Z,16.20
2023-05-25T19:05:12.365Z,16.10
2023-05-25T19:07:51.034Z,16.10
2023-05-25T19:10:25.294Z,16.00
2023-05-25T19:12:52.148Z,15.90
2023-05-25T19:15:19.069Z,15.80
2023-05-25T19:17:46.743Z,15.80
2023-05-25T19:20:13.713Z,15.70
2023-05-25T19:22:42.100Z,15.70
2023-05-25T19:25:09.046Z,15.60
2023-05-25T19:27:36.335Z,15.60
2023-05-25T19:30:03.956Z,15.50
2023-05-25T19:32:31.083Z,15.50
2023-05-25T19:34:57.781Z,15.40
2023-05-25T19:37:25.935Z,15.30
2023-05-25T19:39:52.857Z,15.20
2023-05-25T19:42:19.872Z,15.10
2023-05-25T19:44:46.597Z,15.10
2023-05-25T19:47:13.926Z,15.00
2023-05-25T19:49:40.889Z,14.90
2023-05-25T19:52:07.719Z,14.80
2023-05-25T19:54:34.863Z,14.80
2023-05-25T19:57:02.647Z,14.70
2023-05-25T19:59:31.569Z,14.60
2023-05-25T20:01:58.524Z,14.60
2023-05-25T20:04:26.013Z,14.60
2023-05-25T20:06:53.546Z,14.50
2023-05-25T20:09:24.694Z,14.40
2023-05-25T20:11:52.617Z,14.40
2023-05-25T20:14:20.223Z,14.40
2023-05-25T20:16:47.311Z,14.30
2023-05-25T20:19:14.610Z,14.20
2023-05-25T20:21:41.248Z,14.20
2023-05-25T20:24:08.567Z,14.20
2023-05-25T20:26:35.362Z,14.20
2023-05-25T20:29:02.284Z,14.20
2023-05-25T20:31:29.007Z,14.10
2023-05-25T20:33:56.085Z,14.10
2023-05-25T20:36:22.740Z,14.10
2023-05-25T20:38:50.091Z,14.00
2023-05-25T20:41:16.809Z,14.00
2023-05-25T20:43:44.179Z,13.90
2023-05-25T20:46:11.458Z,13.90
2023-05-25T20:48:39.743Z,13.80
2023-05-25T20:51:06.473Z,13.80
2023-05-25T20:53:33.943Z,13.70
2023-05-25T20:56:01.816Z,13.70
2023-05-25T20:58:28.836Z,13.60
2023-05-25T21:00:55.862Z,13.60
2023-05-25T21:03:22.606Z,13.60
2023-05-25T21:05:49.378Z,13.50
2023-05-25T21:08:16.295Z,13.50
2023-05-25T21:10:43.387Z,13.40
2023-05-25T21:13:10.109Z,13.40
2023-05-25T21:15:37.065Z,13.30
2023-05-25T21:18:05.390Z,13.30
2023-05-25T21:20:32.627Z,13.30
2023-05-25T21:22:59.433Z,13.20
2023-05-25T21:25:26.084Z,13.20
2023-05-25T21:27:54.209Z,13.10
2023-05-25T21:30:24.223Z,13.00
2023-05-25T21:32:51.034Z,13.00
2023-05-25T21:35:18.040Z,12.90
2023-05-25T21:37:45.702Z,12.90
2023-05-25T21:40:12.726Z,12.80
2023-05-25T21:42:39.773Z,12.80
2023-05-25T21:45:07.271Z,12.80
2023-05-25T21:47:34.065Z,12.70
2023-05-25T21:50:01.165Z,12.70
2023-05-25T21:52:28.157Z,12.60
2023-05-25T21:54:54.789Z,12.60
2023-05-25T21:57:22.184Z,12.50
2023-05-25T21:59:48.956Z,12.50
2023-05-25T22:02:16.371Z,12.40
2023-05-25T22:04:43.055Z,12.40
2023-05-25T22:07:10.386Z,12.30
2023-05-25T22:09:37.116Z,12.30
2023-05-25T22:12:04.653Z,12.30
2023-05-25T22:14:31.353Z,12.20
2023-05-25T22:16:58.698Z,12.20
2023-05-25T22:19:25.397Z,12.10
2023-05-25T22:21:53.628Z,12.10
2023-05-25T22:24:20.454Z,12.10
2023-05-25T22:26:47.745Z,12.00
2023-05-25T22:29:14.523Z,11.90
2023-05-25T22:31:41.887Z,11.90
2023-05-25T22:34:08.697Z,11.90
2023-05-25T22:36:37.340Z,11.90
2023-05-25T22:39:04.044Z,11.80
2023-05-25T22:41:31.643Z,11.80
2023-05-25T22:43:58.362Z,11.80
2023-05-25T22:46:25.714Z,11.70
2023-05-25T22:48:52.371Z,11.70
2023-05-25T22:51:19.701Z,11.70
2023-05-25T22:53:46.503Z,11.60
2023-05-25T22:56:13.848Z,11.60
2023-05-25T22:58:40.777Z,11.60
2023-05-25T23:01:08.214Z,11.50
2023-05-25T23:03:35.023Z,11.50
2023-05-25T23:06:02.352Z,11.40
2023-05-25T23:08:29.055Z,11.40
2023-05-25T23:10:56.316Z,11.40
2023-05-25T23:13:24.105Z,11.30
2023-05-25T23:15:51.509Z,11.30
2023-05-25T23:18:18.175Z,11.30
2023-05-25T23:20:45.532Z,11.20
2023-05-25T23:23:12.632Z,11.20
2023-05-25T23:25:39.889Z,11.20
2023-05-25T23:28:06.641Z,11.10
2023-05-25T23:30:34.172Z,11.10
2023-05-25T23:33:01.012Z,11.10
2023-05-25T23:35:28.837Z,11.00
2023-05-25T23:37:57.428Z,11.00
2023-05-25T23:40:24.759Z,10.90
2023-05-25T23:42:51.962Z,11.00
2023-05-25T23:45:19.338Z,10.90
2023-05-25T23:47:46.174Z,10.80
2023-05-25T23:50:13.499Z,10.80
2023-05-25T23:52:41.285Z,10.80
2023-05-25T23:55:08.881Z,10.70
2023-05-25T23:57:36.534Z,10.70
